Time;durP1;ratioP1;P1;durP2;ratioP2;P2;SDS_P1;SDS_P2;PMS_P1;PMS_P2;Temp;Humidity;BMP_temperature;BMP_pressure;BME280_temperature;BME280_humidity;BME280_pressure;Samples;Min_cycle;Max_cycle;Signal;HPM_P1;HPM_P2
2022/03/02 00:00:32;;;;;;;;;20.50;19.50;;;;;;;;5107242;28;11036;-80
2022/03/02 00:02:57;;;;;;;;;33.50;26.00;;;;;;;;5110057;28;12463;-80
2022/03/02 00:05:24;;;;;;;;;5.50;0.00;;;;;;;;5111217;28;13453;-79
2022/03/02 00:07:49;;;;;;;;;17.50;14.75;;;;;;;;5111173;28;22717;-77
2022/03/02 00:10:14;;;;;;;;;25.00;22.00;;;;;;;;5110913;28;22232;-80
2022/03/02 00:12:40;;;;;;;;;29.00;21.25;;;;;;;;5110765;28;13370;-80
2022/03/02 00:15:13;;;;;;;;;26.25;23.50;;;;;;;;5109863;28;11342;-80
2022/03/02 00:17:38;;;;;;;;;14.50;11.50;;;;;;;;5109274;28;11690;-80
2022/03/02 00:20:05;;;;;;;;;23.50;21.00;;;;;;;;5083129;28;14860;-81
2022/03/02 00:22:30;;;;;;;;;26.00;22.00;;;;;;;;5096578;28;13407;-80
2022/03/02 00:24:55;;;;;;;;;21.00;19.50;;;;;;;;5087398;28;10337;-81
2022/03/02 00:27:23;;;;;;;;;26.00;20.50;;;;;;;;5083089;28;12342;-80
2022/03/02 00:29:48;;;;;;;;;24.00;19.00;;;;;;;;5083845;28;9638;-80
2022/03/02 00:32:14;;;;;;;;;21.00;18.00;;;;;;;;5082918;28;13721;-81
2022/03/02 00:34:39;;;;;;;;;24.75;22.00;;;;;;;;5082884;28;8792;-80
2022/03/02 00:37:04;;;;;;;;;24.25;22.50;;;;;;;;5083160;28;11384;-80
2022/03/02 00:39:30;;;;;;;;;24.75;22.00;;;;;;;;5082927;28;8812;-80
2022/03/02 00:42:01;;;;;;;;;27.00;21.25;;;;;;;;5081573;28;8783;-81
2022/03/02 00:44:26;;;;;;;;;25.50;21.50;;;;;;;;5081643;28;11422;-80
2022/03/02 00:46:52;;;;;;;;;22.75;19.50;;;;;;;;5081642;28;11362;-80
2022/03/02 00:49:17;;;;;;;;;13.50;13.00;;;;;;;;5079495;28;11793;-79
2022/03/02 00:51:43;;;;;;;;;23.00;18.50;;;;;;;;5079980;28;13232;-81
2022/03/02 00:54:09;;;;;;;;;25.00;21.00;;;;;;;;5080823;28;13265;-80
2022/03/02 00:56:34;;;;;;;;;21.50;18.00;;;;;;;;5081282;28;12331;-81
2022/03/02 00:58:59;;;;;;;;;24.75;20.50;;;;;;;;5081737;28;11854;-80
2022/03/02 01:01:25;;;;;;;;;20.25;15.25;;;;;;;;5080927;28;12838;-80
2022/03/02 01:03:50;;;;;;;;;25.00;21.00;;;;;;;;5081077;28;12611;-81
2022/03/02 01:06:16;;;;;;;;;24.75;19.50;;;;;;;;5081112;28;12175;-80
2022/03/02 01:08:41;;;;;;;;;27.25;19.00;;;;;;;;5081211;28;12237;-80
2022/03/02 01:11:06;;;;;;;;;18.25;15.00;;;;;;;;5080061;28;11640;-80
2022/03/02 01:13:31;;;;;;;;;20.50;14.50;;;;;;;;5080393;28;11045;-80
2022/03/02 01:15:59;;;;;;;;;21.50;18.50;;;;;;;;5080709;28;13519;-80
2022/03/02 01:18:25;;;;;;;;;20.50;17.50;;;;;;;;5080685;28;9032;-80
2022/03/02 01:20:50;;;;;;;;;18.75;16.00;;;;;;;;5081429;28;8835;-80
2022/03/02 01:23:18;;;;;;;;;26.25;22.00;;;;;;;;5081244;28;13367;-79
2022/03/02 01:25:43;;;;;;;;;20.50;18.75;;;;;;;;5081020;28;11461;-80
2022/03/02 01:28:08;;;;;;;;;19.50;16.00;;;;;;;;5080395;28;12184;-80
2022/03/02 01:30:37;;;;;;;;;20.50;20.00;;;;;;;;5080389;28;13204;-80
2022/03/02 01:33:02;;;;;;;;;22.00;21.00;;;;;;;;5080662;28;10484;-80
2022/03/02 01:35:27;;;;;;;;;24.00;18.75;;;;;;;;5079695;28;10613;-80
2022/03/02 01:37:53;;;;;;;;;24.75;18.50;;;;;;;;5080145;28;12208;-80
2022/03/02 01:40:18;;;;;;;;;21.00;19.00;;;;;;;;5080692;28;9008;-78
2022/03/02 01:42:44;;;;;;;;;16.00;16.00;;;;;;;;5079885;28;11420;-80
2022/03/02 01:45:10;;;;;;;;;21.75;21.00;;;;;;;;5080574;28;10602;-79
2022/03/02 01:47:36;;;;;;;;;19.00;18.25;;;;;;;;5081177;28;12436;-79
2022/03/02 01:50:02;;;;;;;;;16.25;15.00;;;;;;;;5080827;28;13278;-81
2022/03/02 01:52:28;;;;;;;;;22.50;15.50;;;;;;;;5079226;28;12316;-80
2022/03/02 01:54:53;;;;;;;;;21.75;16.00;;;;;;;;5078804;28;13824;-81
2022/03/02 01:57:19;;;;;;;;;17.50;15.75;;;;;;;;5081473;28;11540;-80
2022/03/02 01:59:44;;;;;;;;;15.50;13.50;;;;;;;;5080498;28;13818;-79
2022/03/02 02:02:10;;;;;;;;;17.50;12.00;;;;;;;;5080944;28;11433;-80
2022/03/02 02:04:35;;;;;;;;;19.25;18.00;;;;;;;;5080539;28;11459;-79
2022/03/02 02:07:00;;;;;;;;;19.00;18.75;;;;;;;;5080414;28;10460;-80
2022/03/02 02:09:26;;;;;;;;;23.50;18.00;;;;;;;;5080685;28;9465;-79
2022/03/02 02:11:51;;;;;;;;;12.00;9.00;;;;;;;;5079976;28;13277;-79
2022/03/02 02:14:19;;;;;;;;;19.25;14.50;;;;;;;;5079567;28;22621;-79
2022/03/02 02:16:45;;;;;;;;;15.25;13.50;;;;;;;;5080032;28;21744;-79
2022/03/02 02:19:10;;;;;;;;;18.50;12.00;;;;;;;;5080581;28;8888;-78
2022/03/02 02:21:35;;;;;;;;;18.50;18.50;;;;;;;;5080892;28;11591;-79
2022/03/02 02:24:01;;;;;;;;;20.75;17.00;;;;;;;;5080977;28;9150;-79
2022/03/02 02:26:26;;;;;;;;;17.00;15.75;;;;;;;;5082289;28;14548;-81
2022/03/02 02:28:52;;;;;;;;;14.50;14.50;;;;;;;;5085973;28;13459;-82
2022/03/02 02:31:18;;;;;;;;;23.50;17.00;;;;;;;;5085300;28;11739;-81
2022/03/02 02:33:43;;;;;;;;;23.75;18.00;;;;;;;;5082951;28;13363;-80
2022/03/02 02:36:09;;;;;;;;;26.00;21.50;;;;;;;;5080295;28;9794;-79
2022/03/02 02:38:34;;;;;;;;;18.25;14.25;;;;;;;;5078901;28;12247;-79
2022/03/02 02:40:59;;;;;;;;;19.00;15.75;;;;;;;;5079239;28;13210;-79
2022/03/02 02:43:25;;;;;;;;;15.75;15.75;;;;;;;;5079017;28;10464;-79
2022/03/02 02:45:51;;;;;;;;;23.00;21.25;;;;;;;;5077771;28;11373;-79
2022/03/02 02:48:16;;;;;;;;;16.50;16.50;;;;;;;;5078567;28;12263;-79
2022/03/02 02:50:44;;;;;;;;;21.00;18.25;;;;;;;;5079010;28;13639;-79
2022/03/02 02:53:11;;;;;;;;;18.50;16.00;;;;;;;;5078969;28;13353;-79
2022/03/02 02:55:37;;;;;;;;;19.00;18.75;;;;;;;;5078852;28;13431;-80
2022/03/02 02:58:03;;;;;;;;;21.00;18.00;;;;;;;;5078508;28;11719;-79
2022/03/02 03:00:30;;;;;;;;;19.50;18.25;;;;;;;;5078249;28;13271;-80
2022/03/02 03:02:58;;;;;;;;;18.50;17.00;;;;;;;;5080291;28;13882;-79
2022/03/02 03:05:29;;;;;;;;;18.00;15.50;;;;;;;;5078338;28;12553;-78
2022/03/02 03:07:54;;;;;;;;;24.75;16.50;;;;;;;;5077905;28;11099;-79
2022/03/02 03:10:20;;;;;;;;;18.00;14.00;;;;;;;;5079309;28;12168;-79
2022/03/02 03:12:46;;;;;;;;;19.50;15.00;;;;;;;;5078249;28;13608;-79
2022/03/02 03:15:12;;;;;;;;;18.00;15.50;;;;;;;;5078930;28;10403;-79
2022/03/02 03:17:39;;;;;;;;;22.25;20.00;;;;;;;;5078448;28;12614;-80
2022/03/02 03:20:05;;;;;;;;;22.75;15.75;;;;;;;;5078144;28;13550;-79
2022/03/02 03:22:30;;;;;;;;;19.25;16.00;;;;;;;;5077365;28;14721;-79
2022/03/02 03:24:56;;;;;;;;;21.00;18.00;;;;;;;;5078608;28;13306;-79
2022/03/02 03:27:21;;;;;;;;;20.25;18.50;;;;;;;;5080668;28;12165;-79
2022/03/02 03:29:46;;;;;;;;;16.75;15.00;;;;;;;;5078893;28;11346;-80
2022/03/02 03:32:12;;;;;;;;;15.75;15.75;;;;;;;;5078693;28;13583;-80
2022/03/02 03:34:37;;;;;;;;;17.25;14.50;;;;;;;;5078705;28;11641;-80
2022/03/02 03:37:03;;;;;;;;;21.75;19.00;;;;;;;;5078557;28;11373;-78
2022/03/02 03:39:28;;;;;;;;;15.00;13.50;;;;;;;;5078374;28;13563;-80
2022/03/02 03:41:55;;;;;;;;;20.25;16.50;;;;;;;;5078094;28;13533;-78
2022/03/02 03:44:21;;;;;;;;;23.00;20.50;;;;;;;;5077534;28;12531;-78
2022/03/02 03:46:46;;;;;;;;;18.00;16.00;;;;;;;;5078593;28;11406;-80
2022/03/02 03:49:11;;;;;;;;;18.75;17.00;;;;;;;;5078606;28;13665;-79
2022/03/02 03:51:36;;;;;;;;;19.00;15.00;;;;;;;;5078567;28;9516;-79
2022/03/02 03:54:02;;;;;;;;;18.25;16.00;;;;;;;;5078690;28;10533;-80
2022/03/02 03:56:31;;;;;;;;;20.00;17.00;;;;;;;;5078684;28;10342;-79
2022/03/02 03:58:58;;;;;;;;;17.75;16.50;;;;;;;;5079176;28;13526;-80
2022/03/02 04:01:24;;;;;;;;;27.25;17.75;;;;;;;;5081213;28;13408;-79
2022/03/02 04:03:49;;;;;;;;;16.00;16.00;;;;;;;;5081568;28;13208;-79
2022/03/02 04:06:14;;;;;;;;;19.75;18.75;;;;;;;;5081673;28;13228;-79
2022/03/02 04:08:40;;;;;;;;;20.25;17.00;;;;;;;;5080970;28;11698;-79
2022/03/02 04:11:05;;;;;;;;;18.00;18.00;;;;;;;;5081987;28;13561;-79
2022/03/02 04:13:31;;;;;;;;;19.00;16.50;;;;;;;;5081321;28;13586;-81
2022/03/02 04:15:56;;;;;;;;;18.50;16.00;;;;;;;;5083841;28;11792;-80
2022/03/02 04:18:22;;;;;;;;;21.50;17.00;;;;;;;;5081442;28;11776;-78
2022/03/02 04:20:47;;;;;;;;;18.25;14.50;;;;;;;;5081782;28;10651;-80
2022/03/02 04:23:12;;;;;;;;;14.50;14.50;;;;;;;;5081318;28;13170;-80
2022/03/02 04:25:38;;;;;;;;;18.50;15.00;;;;;;;;5081581;28;8884;-81
2022/03/02 04:28:04;;;;;;;;;16.25;11.50;;;;;;;;5081114;28;11406;-79
2022/03/02 04:30:30;;;;;;;;;20.00;18.50;;;;;;;;5080401;28;11561;-80
2022/03/02 04:32:56;;;;;;;;;14.00;12.00;;;;;;;;5079509;28;12351;-81
2022/03/02 04:35:21;;;;;;;;;16.00;15.00;;;;;;;;5080591;28;13761;-79
2022/03/02 04:37:47;;;;;;;;;17.50;15.75;;;;;;;;5081681;28;8894;-80
2022/03/02 04:40:13;;;;;;;;;22.25;14.50;;;;;;;;5079511;28;13954;-80
2022/03/02 04:42:38;;;;;;;;;18.75;14.00;;;;;;;;5080470;28;13560;-78
2022/03/02 04:45:04;;;;;;;;;15.25;14.00;;;;;;;;5080385;28;13239;-80
2022/03/02 04:47:30;;;;;;;;;12.75;9.75;;;;;;;;5080783;28;8806;-79
2022/03/02 04:49:57;;;;;;;;;15.00;14.50;;;;;;;;5081014;28;21574;-80
2022/03/02 04:52:22;;;;;;;;;15.00;11.00;;;;;;;;5078756;28;22136;-80
2022/03/02 04:55:06;;;;;;;;;16.50;12.25;;;;;;;;5080419;28;9048;-79
2022/03/02 04:57:36;;;;;;;;;9.25;9.00;;;;;;;;5080543;28;11459;-80
2022/03/02 05:00:03;;;;;;;;;21.00;16.00;;;;;;;;5080794;28;22292;-80
2022/03/02 05:02:28;;;;;;;;;16.75;12.75;;;;;;;;5080230;28;22792;-78
2022/03/02 05:04:54;;;;;;;;;12.75;12.50;;;;;;;;5075998;28;13559;-79
2022/03/02 05:07:19;;;;;;;;;12.00;12.00;;;;;;;;5069311;28;11728;-78
2022/03/02 05:09:44;;;;;;;;;15.50;13.75;;;;;;;;5066784;28;10448;-78
2022/03/02 05:12:10;;;;;;;;;14.50;9.00;;;;;;;;5068641;28;11371;-76
2022/03/02 05:14:35;;;;;;;;;20.75;13.50;;;;;;;;5067817;28;21711;-76
2022/03/02 05:17:04;;;;;;;;;17.50;13.50;;;;;;;;5067323;28;23018;-78
2022/03/02 05:19:29;;;;;;;;;12.00;11.00;;;;;;;;5066757;28;10285;-77
2022/03/02 05:21:54;;;;;;;;;17.25;15.75;;;;;;;;5068520;28;12815;-76
2022/03/02 05:24:20;;;;;;;;;14.75;12.50;;;;;;;;5067368;28;11554;-78
2022/03/02 05:26:45;;;;;;;;;16.50;14.00;;;;;;;;5066262;28;12452;-77
2022/03/02 05:29:11;;;;;;;;;20.25;15.75;;;;;;;;5068469;28;11403;-76
2022/03/02 05:31:36;;;;;;;;;15.25;12.25;;;;;;;;5066666;28;13603;-72
2022/03/02 05:34:01;;;;;;;;;16.00;13.00;;;;;;;;5066326;28;12901;-75
2022/03/02 05:36:27;;;;;;;;;16.00;15.00;;;;;;;;5066397;28;11620;-73
2022/03/02 05:38:53;;;;;;;;;16.25;13.00;;;;;;;;5068909;28;9713;-72
2022/03/02 05:41:19;;;;;;;;;21.00;13.00;;;;;;;;5066445;28;9698;-74
2022/03/02 05:43:45;;;;;;;;;15.50;11.00;;;;;;;;5066353;28;10215;-73
2022/03/02 05:46:10;;;;;;;;;18.25;15.75;;;;;;;;5067287;28;12610;-74
2022/03/02 05:48:36;;;;;;;;;19.75;12.25;;;;;;;;5068530;28;11569;-74
2022/03/02 05:51:01;;;;;;;;;16.00;13.00;;;;;;;;5066303;28;10387;-76
2022/03/02 05:53:26;;;;;;;;;21.00;15.00;;;;;;;;5067823;28;11731;-74
2022/03/02 05:55:52;;;;;;;;;20.50;13.00;;;;;;;;5067263;28;11693;-74
2022/03/02 05:58:20;;;;;;;;;12.50;10.50;;;;;;;;5066002;28;10620;-73
2022/03/02 06:00:45;;;;;;;;;16.00;12.00;;;;;;;;5065987;28;13329;-74
2022/03/02 06:03:10;;;;;;;;;16.25;13.00;;;;;;;;5065791;28;11729;-74
2022/03/02 06:05:36;;;;;;;;;10.25;9.75;;;;;;;;5067008;28;10075;-73
2022/03/02 06:08:01;;;;;;;;;14.75;13.00;;;;;;;;5066021;28;22238;-73
2022/03/02 06:10:26;;;;;;;;;17.00;16.25;;;;;;;;5067399;28;21505;-76
2022/03/02 06:12:52;;;;;;;;;19.00;16.00;;;;;;;;5067473;28;11374;-76
2022/03/02 06:15:17;;;;;;;;;18.25;14.50;;;;;;;;5068691;28;11625;-75
2022/03/02 06:17:43;;;;;;;;;15.00;13.50;;;;;;;;5065960;28;11394;-76
2022/03/02 06:20:09;;;;;;;;;13.50;10.50;;;;;;;;5067224;28;10386;-78
2022/03/02 06:22:37;;;;;;;;;18.25;14.50;;;;;;;;5062620;28;13683;-75
2022/03/02 06:25:04;;;;;;;;;15.25;15.25;;;;;;;;5057422;28;12557;-74
2022/03/02 06:27:30;;;;;;;;;18.25;16.25;;;;;;;;5073646;28;11953;-76
2022/03/02 06:29:55;;;;;;;;;18.25;17.50;;;;;;;;5078453;28;8776;-78
2022/03/02 06:32:20;;;;;;;;;19.25;16.50;;;;;;;;5078580;28;8840;-78
2022/03/02 06:34:46;;;;;;;;;13.00;13.00;;;;;;;;5078894;28;8791;-76
2022/03/02 06:37:12;;;;;;;;;14.50;14.50;;;;;;;;5060731;28;11368;-75
2022/03/02 06:39:38;;;;;;;;;19.25;18.00;;;;;;;;5057321;28;11774;-75
2022/03/02 06:42:16;;;;;;;;;19.00;15.75;;;;;;;;5059595;28;11855;-75
2022/03/02 06:44:42;;;;;;;;;24.25;18.25;;;;;;;;5062605;28;10414;-75
2022/03/02 06:47:12;;;;;;;;;27.00;18.25;;;;;;;;5059555;28;12591;-77
2022/03/02 06:49:52;;;;;;;;;15.75;12.25;;;;;;;;5058346;28;8986;-78
2022/03/02 06:52:19;;;;;;;;;20.50;16.00;;;;;;;;5057339;28;12454;-76
2022/03/02 06:54:47;;;;;;;;;17.00;13.00;;;;;;;;5058123;28;13643;-75
2022/03/02 06:57:15;;;;;;;;;23.50;15.75;;;;;;;;5057330;28;12293;-77
2022/03/02 06:59:42;;;;;;;;;16.00;15.75;;;;;;;;5058162;28;13391;-80
2022/03/02 07:02:09;;;;;;;;;20.75;18.75;;;;;;;;5057537;28;10272;-76
2022/03/02 07:04:38;;;;;;;;;9.75;7.50;;;;;;;;5057193;28;12283;-74
2022/03/02 07:07:04;;;;;;;;;24.50;23.00;;;;;;;;5056072;28;24210;-77
2022/03/02 07:09:33;;;;;;;;;23.00;18.75;;;;;;;;5056491;28;22905;-76
2022/03/02 07:11:59;;;;;;;;;24.00;21.00;;;;;;;;5056453;28;12470;-76
2022/03/02 07:14:26;;;;;;;;;18.25;18.25;;;;;;;;5058052;28;12481;-76
2022/03/02 07:16:51;;;;;;;;;27.00;26.50;;;;;;;;5057189;28;13347;-75
2022/03/02 07:19:17;;;;;;;;;21.50;21.50;;;;;;;;5057425;28;13276;-76
2022/03/02 07:21:44;;;;;;;;;19.00;18.25;;;;;;;;5056646;28;10580;-76
2022/03/02 07:24:17;;;;;;;;;34.25;32.00;;;;;;;;5056482;28;13802;-76
2022/03/02 07:26:50;;;;;;;;;28.00;22.50;;;;;;;;5056879;28;13558;-75
2022/03/02 07:29:15;;;;;;;;;22.75;20.50;;;;;;;;5057900;28;13592;-75
2022/03/02 07:31:41;;;;;;;;;20.50;18.50;;;;;;;;5057428;28;10511;-75
2022/03/02 07:34:10;;;;;;;;;20.50;17.75;;;;;;;;5057978;28;12719;-76
2022/03/02 07:36:36;;;;;;;;;27.75;24.75;;;;;;;;5060593;28;8948;-74
2022/03/02 07:39:02;;;;;;;;;22.75;22.25;;;;;;;;5060444;28;12683;-74
2022/03/02 07:41:28;;;;;;;;;15.25;11.50;;;;;;;;5058694;28;10446;-75
2022/03/02 07:43:54;;;;;;;;;23.25;16.00;;;;;;;;5058528;28;13879;-75
2022/03/02 07:46:19;;;;;;;;;19.00;16.00;;;;;;;;5063271;28;13430;-75
2022/03/02 07:48:45;;;;;;;;;23.00;20.50;;;;;;;;5077091;28;11870;-75
2022/03/02 07:51:10;;;;;;;;;21.00;15.50;;;;;;;;5079919;28;13412;-75
2022/03/02 07:53:48;;;;;;;;;21.00;18.25;;;;;;;;5080343;28;9696;-74
2022/03/02 07:56:14;;;;;;;;;19.50;17.50;;;;;;;;5078946;28;9458;-75
2022/03/02 07:58:40;;;;;;;;;21.00;19.00;;;;;;;;5079594;28;14501;-76
2022/03/02 08:01:12;;;;;;;;;28.25;22.00;;;;;;;;5081036;28;13293;-77
2022/03/02 08:03:40;;;;;;;;;24.50;19.50;;;;;;;;5080298;28;11496;-75
2022/03/02 08:06:06;;;;;;;;;17.50;12.25;;;;;;;;5077582;28;12333;-74
2022/03/02 08:08:32;;;;;;;;;30.50;24.00;;;;;;;;5080130;28;14582;-74
2022/03/02 08:10:57;;;;;;;;;31.75;29.50;;;;;;;;5079817;28;13245;-74
2022/03/02 08:13:23;;;;;;;;;27.75;24.00;;;;;;;;5079748;28;11422;-74
2022/03/02 08:15:50;;;;;;;;;36.67;30.33;;;;;;;;5071304;28;14039;-74
2022/03/02 08:18:15;;;;;;;;;37.67;31.00;;;;;;;;5069033;28;13503;-76
2022/03/02 08:20:47;;;;;;;;;34.67;32.33;;;;;;;;5066463;28;11603;-77
2022/03/02 08:23:12;;;;;;;;;36.50;32.25;;;;;;;;5070585;28;11718;-75
2022/03/02 08:25:38;;;;;;;;;38.25;34.25;;;;;;;;5067403;28;11578;-75
2022/03/02 08:28:08;;;;;;;;;36.50;33.25;;;;;;;;5069392;28;11969;-74
2022/03/02 08:30:34;;;;;;;;;38.50;33.75;;;;;;;;5068299;28;11268;-76
2022/03/02 08:33:00;;;;;;;;;39.50;36.25;;;;;;;;5066525;28;11576;-75
2022/03/02 08:35:26;;;;;;;;;37.50;35.00;;;;;;;;5063927;28;10536;-74
2022/03/02 08:37:51;;;;;;;;;37.75;34.25;;;;;;;;5068808;28;11546;-77
2022/03/02 08:40:16;;;;;;;;;38.00;36.00;;;;;;;;5066616;28;10623;-77
2022/03/02 08:42:42;;;;;;;;;39.25;34.75;;;;;;;;5066581;28;12126;-76
2022/03/02 08:45:08;;;;;;;;;40.75;38.00;;;;;;;;5067721;28;11453;-74
2022/03/02 08:47:34;;;;;;;;;49.33;40.67;;;;;;;;5067984;28;13508;-73
2022/03/02 08:49:59;;;;;;;;;43.67;39.00;;;;;;;;5065670;28;13533;-74
2022/03/02 08:52:25;;;;;;;;;45.00;40.00;;;;;;;;5068259;28;12360;-73
2022/03/02 08:54:51;;;;;;;;;37.33;35.33;;;;;;;;5067431;28;12663;-76
2022/03/02 08:57:18;;;;;;;;;41.67;35.00;;;;;;;;5076042;28;13291;-75
2022/03/02 08:59:43;;;;;;;;;43.00;37.67;;;;;;;;5076244;28;13305;-74
2022/03/02 09:02:09;;;;;;;;;41.00;32.67;;;;;;;;5078724;28;11419;-77
2022/03/02 09:04:35;;;;;;;;;46.33;41.33;;;;;;;;5078634;28;9198;-75
2022/03/02 09:07:02;;;;;;;;;50.00;40.33;;;;;;;;5078390;28;12634;-76
2022/03/02 09:09:28;;;;;;;;;41.67;38.00;;;;;;;;5079212;28;13435;-76
2022/03/02 09:11:55;;;;;;;;;47.75;39.75;;;;;;;;5079196;28;13395;-76
2022/03/02 09:14:20;;;;;;;;;48.00;40.50;;;;;;;;5078454;28;11640;-78
2022/03/02 09:16:46;;;;;;;;;33.00;33.00;;;;;;;;5078629;28;12297;-76
2022/03/02 09:19:11;;;;;;;;;41.25;36.00;;;;;;;;5078044;28;13639;-80
2022/03/02 09:21:37;;;;;;;;;48.00;37.50;;;;;;;;5078877;28;12214;-80
2022/03/02 09:24:05;;;;;;;;;44.75;36.00;;;;;;;;5078541;28;11444;-78
2022/03/02 09:26:30;;;;;;;;;50.00;41.00;;;;;;;;5079100;28;11858;-80
2022/03/02 09:28:56;;;;;;;;;53.00;41.50;;;;;;;;5078542;28;12747;-78
2022/03/02 09:31:22;;;;;;;;;45.25;37.25;;;;;;;;5078744;28;11448;-79
2022/03/02 09:33:49;;;;;;;;;43.00;36.00;;;;;;;;5065113;28;14693;-77
2022/03/02 09:36:18;;;;;;;;;37.00;32.50;;;;;;;;5069644;28;11506;-74
2022/03/02 09:38:47;;;;;;;;;37.67;32.33;;;;;;;;5067595;28;13335;-76
2022/03/02 09:41:13;;;;;;;;;28.33;27.67;;;;;;;;5069455;28;9381;-77
2022/03/02 09:43:41;;;;;;;;;28.00;26.25;;;;;;;;5067036;28;13480;-77
2022/03/02 09:46:09;;;;;;;;;27.50;25.50;;;;;;;;5068358;28;10952;-80
2022/03/02 09:48:39;;;;;;;;;27.75;26.50;;;;;;;;5061512;28;11837;-82
2022/03/02 09:51:05;;;;;;;;;24.75;24.75;;;;;;;;5081866;22;10980;-82
2022/03/02 09:53:32;;;;;;;;;28.00;25.75;;;;;;;;5119704;28;12171;-82
2022/03/02 09:56:01;;;;;;;;;22.00;21.25;;;;;;;;5098444;28;10765;-85
2022/03/02 09:58:27;;;;;;;;;21.00;21.00;;;;;;;;5110569;28;10518;-83
2022/03/02 10:00:53;;;;;;;;;21.00;20.25;;;;;;;;5106615;28;12042;-86
2022/03/02 10:03:19;;;;;;;;;23.75;22.25;;;;;;;;5108531;28;8942;-84
2022/03/02 10:05:48;;;;;;;;;23.00;22.00;;;;;;;;5112503;28;10351;-85
2022/03/02 10:08:17;;;;;;;;;21.50;20.50;;;;;;;;5111734;28;8917;-86
2022/03/02 10:10:42;;;;;;;;;20.00;19.25;;;;;;;;5112405;28;11800;-85
2022/03/02 10:13:11;;;;;;;;;20.00;18.67;;;;;;;;5109191;28;14003;-85
2022/03/02 10:15:37;;;;;;;;;19.75;18.75;;;;;;;;5109246;28;9111;-85
2022/03/02 10:18:03;;;;;;;;;18.33;18.33;;;;;;;;5112002;28;13260;-86
2022/03/02 10:20:33;;;;;;;;;18.00;18.00;;;;;;;;5108046;28;10414;-86
2022/03/02 10:23:19;;;;;;;;;17.75;17.00;;;;;;;;5110822;28;8840;-85
2022/03/02 10:26:02;;;;;;;;;27.50;25.50;;;;;;;;5102532;28;10559;-87
2022/03/02 10:28:43;;;;;;;;;18.00;17.75;;;;;;;;5082089;28;15607;-77
2022/03/02 10:31:17;;;;;;;;;16.50;15.75;;;;;;;;5102599;28;13329;-80
2022/03/02 10:33:45;;;;;;;;;19.00;17.25;;;;;;;;5109258;28;10542;-80
2022/03/02 10:36:11;;;;;;;;;17.25;16.75;;;;;;;;5100674;28;12442;-81
2022/03/02 10:38:39;;;;;;;;;19.00;18.67;;;;;;;;5100161;28;10950;-80
2022/03/02 10:41:07;;;;;;;;;17.25;17.25;;;;;;;;5117755;28;11470;-80
2022/03/02 10:43:39;;;;;;;;;19.25;18.00;;;;;;;;5118359;28;11460;-80
2022/03/02 10:46:06;;;;;;;;;19.50;19.50;;;;;;;;5088824;28;12140;-76
2022/03/02 10:48:38;;;;;;;;;15.25;15.25;;;;;;;;5117749;28;10648;-78
2022/03/02 10:51:04;;;;;;;;;17.00;17.00;;;;;;;;5118595;28;12738;-78
2022/03/02 10:53:30;;;;;;;;;16.50;16.25;;;;;;;;5099006;28;13587;-75
2022/03/02 10:55:56;;;;;;;;;18.00;15.67;;;;;;;;5113944;28;12659;-77
2022/03/02 10:58:22;;;;;;;;;18.50;15.75;;;;;;;;5116810;28;11516;-77
2022/03/02 11:00:48;;;;;;;;;14.00;14.00;;;;;;;;5118129;28;8801;-76
2022/03/02 11:03:13;;;;;;;;;19.75;17.00;;;;;;;;5116877;28;11474;-76
2022/03/02 11:05:39;;;;;;;;;17.33;14.33;;;;;;;;5117022;28;10326;-76
2022/03/02 11:08:04;;;;;;;;;16.33;15.67;;;;;;;;5117848;28;11871;-78
2022/03/02 11:10:37;;;;;;;;;10.00;9.00;;;;;;;;5100691;28;11706;-77
2022/03/02 11:13:11;;;;;;;;;14.75;14.50;;;;;;;;5117647;28;21729;-78
2022/03/02 11:15:46;;;;;;;;;18.00;17.67;;;;;;;;5117012;28;21769;-79
2022/03/02 11:18:16;;;;;;;;;19.00;18.00;;;;;;;;5130809;27;13567;-79
2022/03/02 11:20:51;;;;;;;;;20.00;19.75;;;;;;;;5098730;28;11650;-77
2022/03/02 11:23:22;;;;;;;;;19.50;17.25;;;;;;;;5117499;28;13328;-76
2022/03/02 11:25:49;;;;;;;;;18.25;16.50;;;;;;;;5097119;28;12629;-76
2022/03/02 11:28:18;;;;;;;;;16.25;14.50;;;;;;;;5127029;28;11450;-76
2022/03/02 11:30:51;;;;;;;;;21.25;19.00;;;;;;;;5129660;28;11403;-79
2022/03/02 11:33:20;;;;;;;;;16.25;14.75;;;;;;;;5130671;28;13361;-79
2022/03/02 11:35:46;;;;;;;;;19.00;18.25;;;;;;;;5134282;28;13842;-77
2022/03/02 11:38:12;;;;;;;;;12.00;12.00;;;;;;;;5135575;28;11456;-77
2022/03/02 11:40:38;;;;;;;;;15.00;15.00;;;;;;;;5129907;28;11694;-78
2022/03/02 11:43:19;;;;;;;;;20.25;16.50;;;;;;;;5100441;28;11501;-78
2022/03/02 11:45:48;;;;;;;;;18.75;17.00;;;;;;;;5117998;28;13317;-76
2022/03/02 11:48:15;;;;;;;;;20.00;16.00;;;;;;;;5098617;28;15677;-77
2022/03/02 11:50:59;;;;;;;;;17.00;13.75;;;;;;;;5116273;28;12520;-79
2022/03/02 11:53:29;;;;;;;;;12.00;11.25;;;;;;;;5116302;28;13919;-81
2022/03/02 11:55:55;;;;;;;;;17.75;15.25;;;;;;;;5105268;27;12540;-77
2022/03/02 11:58:20;;;;;;;;;18.50;16.50;;;;;;;;5101804;28;12176;-87
2022/03/02 12:00:45;;;;;;;;;17.50;16.00;;;;;;;;5099862;28;13617;-76
2022/03/02 12:03:11;;;;;;;;;19.25;15.75;;;;;;;;5115932;28;11400;-76
2022/03/02 12:05:36;;;;;;;;;10.75;10.75;;;;;;;;5097627;28;14779;-76
2022/03/02 12:08:06;;;;;;;;;18.75;12.00;;;;;;;;5098247;28;11636;-77
2022/03/02 12:10:33;;;;;;;;;12.25;11.00;;;;;;;;5114794;28;11527;-76
2022/03/02 12:12:58;;;;;;;;;13.50;12.50;;;;;;;;5116273;28;11510;-80
2022/03/02 12:15:25;;;;;;;;;13.75;11.75;;;;;;;;5097855;28;13352;-77
2022/03/02 12:17:52;;;;;;;;;9.50;8.75;;;;;;;;5118489;28;11786;-83
2022/03/02 12:20:22;;;;;;;;;20.00;14.00;;;;;;;;5099457;28;24636;-79
2022/03/02 12:22:51;;;;;;;;;12.50;11.00;;;;;;;;5120759;28;23861;-80
2022/03/02 12:25:19;;;;;;;;;9.75;8.50;;;;;;;;5121257;28;12274;-85
2022/03/02 12:27:56;;;;;;;;;11.00;11.00;;;;;;;;5121770;28;22244;-86
2022/03/02 12:30:21;;;;;;;;;12.25;10.00;;;;;;;;5119799;28;22421;-84
2022/03/02 12:32:46;;;;;;;;;17.25;13.50;;;;;;;;5103160;28;11470;-84
2022/03/02 12:35:13;;;;;;;;;9.00;8.00;;;;;;;;5122727;28;11797;-86
2022/03/02 12:37:39;;;;;;;;;14.25;13.75;;;;;;;;5120669;28;22354;-84
2022/03/02 12:40:09;;;;;;;;;13.25;11.50;;;;;;;;5102931;28;23079;-79
2022/03/02 12:42:34;;;;;;;;;13.75;12.50;;;;;;;;5121184;28;11808;-87
2022/03/02 12:45:00;;;;;;;;;13.00;11.00;;;;;;;;5122733;28;11528;-87
2022/03/02 12:47:30;;;;;;;;;5.00;2.75;;;;;;;;5123088;28;11465;-87
2022/03/02 12:49:56;;;;;;;;;15.50;10.75;;;;;;;;5103020;28;24543;-86
2022/03/02 12:52:22;;;;;;;;;17.75;15.75;;;;;;;;5121001;27;22371;-86
2022/03/02 12:54:48;;;;;;;;;20.50;16.50;;;;;;;;5121707;28;10441;-87
2022/03/02 12:57:15;;;;;;;;;15.00;15.00;;;;;;;;5103005;28;15235;-83
2022/03/02 12:59:41;;;;;;;;;15.50;14.50;;;;;;;;5121037;28;13292;-84
2022/03/02 13:02:17;;;;;;;;;17.25;14.50;;;;;;;;5101700;28;11490;-86
2022/03/02 13:05:01;;;;;;;;;16.75;13.50;;;;;;;;5119086;28;11463;-87
2022/03/02 13:07:36;;;;;;;;;18.00;15.50;;;;;;;;5119908;28;11465;-84
2022/03/02 13:10:06;;;;;;;;;8.00;7.50;;;;;;;;5117604;28;11476;-78
2022/03/02 13:12:34;;;;;;;;;14.25;13.25;;;;;;;;5100586;28;22657;-79
2022/03/02 13:15:00;;;;;;;;;15.00;14.00;;;;;;;;5100476;28;24436;-80
2022/03/02 13:17:26;;;;;;;;;15.75;14.25;;;;;;;;5121722;28;12820;-80
2022/03/02 13:19:53;;;;;;;;;18.50;12.25;;;;;;;;5110083;28;11579;-80
2022/03/02 13:22:37;;;;;;;;;10.75;8.25;;;;;;;;5119425;28;11662;-80
2022/03/02 13:25:08;;;;;;;;;9.00;9.00;;;;;;;;5113121;28;21664;-80
2022/03/02 13:27:35;;;;;;;;;12.00;9.00;;;;;;;;5112167;28;21646;-79
2022/03/02 13:30:03;;;;;;;;;11.00;11.00;;;;;;;;5104134;28;18593;-85
2022/03/02 13:32:44;;;;;;;;;10.50;9.00;;;;;;;;5121309;28;23348;-84
2022/03/02 13:35:12;;;;;;;;;9.50;8.50;;;;;;;;5121619;28;22003;-82
2022/03/02 13:37:56;;;;;;;;;9.75;6.00;;;;;;;;5123284;28;21528;-88
2022/03/02 13:40:33;;;;;;;;;12.00;12.00;;;;;;;;5126328;28;11434;-84
2022/03/02 13:43:04;;;;;;;;;13.25;11.25;;;;;;;;5131261;28;22803;-90
2022/03/02 13:45:30;;;;;;;;;11.25;10.00;;;;;;;;5122283;28;11463;-91
2022/03/02 13:48:30;;;;;;;;;12.75;10.00;;;;;;;;5120466;28;12396;-93
2022/03/02 13:51:07;;;;;;;;;12.00;11.75;;;;;;;;5049160;28;8801;-88
2022/03/02 13:53:46;;;;;;;;;10.00;8.50;;;;;;;;5104043;28;12441;-91
2022/03/02 13:56:13;;;;;;;;;18.25;16.50;;;;;;;;5122624;28;21605;-90
2022/03/02 13:58:39;;;;;;;;;13.25;11.75;;;;;;;;5109279;28;23544;-84
2022/03/02 14:01:34;;;;;;;;;14.00;12.75;;;;;;;;5118267;28;11728;-91
2022/03/02 14:04:18;;;;;;;;;16.50;12.00;;;;;;;;5071342;28;11486;-85
2022/03/02 14:06:45;;;;;;;;;12.25;11.75;;;;;;;;5082797;28;11559;-91
2022/03/02 14:09:29;;;;;;;;;13.00;11.75;;;;;;;;5094964;28;11491;-91
2022/03/02 14:11:58;;;;;;;;;13.00;11.50;;;;;;;;5064684;28;11500;-94
2022/03/02 14:14:23;;;;;;;;;14.00;9.00;;;;;;;;5078404;28;11413;-93
2022/03/02 14:16:53;;;;;;;;;14.00;14.00;;;;;;;;5125053;28;21857;-92
2022/03/02 14:19:39;;;;;;;;;11.00;11.00;;;;;;;;5133003;28;16572;-92